createdAt,value
2019-05-02T00:00:31.605Z,22.1
2019-05-02T00:01:21.726Z,22.1
2019-05-02T00:02:11.730Z,22.1
2019-05-02T00:03:06.343Z,22.1
2019-05-02T00:03:51.577Z,22.1
2019-05-02T00:04:41.915Z,22.1
2019-05-02T00:05:33.547Z,22.1
2019-05-02T00:06:22.042Z,22.1
2019-05-02T00:07:21.925Z,22.1
2019-05-02T00:08:01.890Z,22.1
2019-05-02T00:08:52.229Z,22.1
2019-05-02T00:09:50.878Z,22.1
2019-05-02T00:10:32.359Z,22.1
2019-05-02T00:11:22.409Z,22.1
2019-05-02T00:12:12.478Z,22.1
2019-05-02T00:13:02.530Z,22.1
2019-05-02T00:13:52.312Z,22.1
2019-05-02T00:14:42.662Z,22.1
2019-05-02T00:15:39.524Z,22.1
2019-05-02T00:16:22.779Z,22.1
2019-05-02T00:17:12.604Z,22.1
2019-05-02T00:18:03.442Z,22.1
2019-05-02T00:18:52.689Z,22.1
2019-05-02T00:19:51.249Z,22.1
2019-05-02T00:20:33.097Z,22.1
2019-05-02T00:21:23.154Z,22.1
2019-05-02T00:22:19.034Z,22.1
2019-05-02T00:23:03.012Z,22.1
2019-05-02T00:23:53.342Z,22.1
2019-05-02T00:24:43.124Z,22
2019-05-02T00:25:33.467Z,22.1
2019-05-02T00:26:26.381Z,22.1
2019-05-02T00:27:13.578Z,22
2019-05-02T00:28:03.369Z,22.1
2019-05-02T00:28:53.431Z,22
2019-05-02T00:29:43.791Z,22.1
2019-05-02T00:30:36.784Z,22.1
2019-05-02T00:31:23.622Z,22.1
2019-05-02T00:32:18.209Z,22
2019-05-02T00:33:03.806Z,22
2019-05-02T00:33:54.086Z,22
2019-05-02T00:34:44.141Z,22.1
2019-05-02T00:35:34.201Z,22
2019-05-02T00:36:24.266Z,22
2019-05-02T00:37:18.744Z,22
2019-05-02T00:38:04.884Z,22
2019-05-02T00:38:54.452Z,22.1
2019-05-02T00:39:50.509Z,22
2019-05-02T00:40:34.571Z,22
2019-05-02T00:41:24.642Z,22
2019-05-02T00:42:24.079Z,22
2019-05-02T00:43:04.755Z,22.1
2019-05-02T00:43:54.826Z,22
2019-05-02T00:44:48.558Z,22
2019-05-02T00:45:34.952Z,22
2019-05-02T00:46:25.013Z,22
2019-05-02T00:47:15.066Z,22
2019-05-02T00:48:04.860Z,22
2019-05-02T00:49:02.433Z,22
2019-05-02T00:49:45.250Z,22
2019-05-02T00:50:35.317Z,22
2019-05-02T00:51:28.382Z,22
2019-05-02T00:52:15.440Z,22
2019-05-02T00:53:13.462Z,22
2019-05-02T00:53:55.566Z,22
2019-05-02T00:54:45.632Z,22
2019-05-02T00:55:36.562Z,22.1
2019-05-02T00:56:25.489Z,22
2019-05-02T00:57:22.302Z,22
2019-05-02T00:58:05.624Z,22
2019-05-02T00:58:55.954Z,22
2019-05-02T00:59:45.754Z,22
2019-05-02T01:00:35.805Z,22
2019-05-02T01:01:31.637Z,22
2019-05-02T01:02:16.179Z,22
2019-05-02T01:03:06.254Z,22
2019-05-02T01:03:56.039Z,22
2019-05-02T01:04:46.374Z,22
2019-05-02T01:05:40.802Z,22
2019-05-02T01:06:26.492Z,22
2019-05-02T01:07:25.359Z,22
2019-05-02T01:08:06.629Z,22
2019-05-02T01:08:56.674Z,22
2019-05-02T01:09:48.559Z,22
2019-05-02T01:10:36.801Z,22
2019-05-02T01:11:33.781Z,22
2019-05-02T01:12:27.521Z,22
2019-05-02T01:13:06.721Z,22
2019-05-02T01:13:58.757Z,22
2019-05-02T01:14:47.139Z,22
2019-05-02T01:15:45.924Z,22
2019-05-02T01:16:27.251Z,22
2019-05-02T01:17:17.040Z,22
2019-05-02T01:18:08.716Z,22
2019-05-02T01:18:57.446Z,22
2019-05-02T01:19:52.690Z,22
2019-05-02T01:20:37.549Z,22
2019-05-02T01:21:27.055Z,22
2019-05-02T01:22:18.296Z,22
2019-05-02T01:23:07.476Z,22
2019-05-02T01:24:04.381Z,22
2019-05-02T01:24:47.855Z,22
2019-05-02T01:25:37.918Z,22
2019-05-02T01:26:31.127Z,22
2019-05-02T01:27:18.045Z,22
2019-05-02T01:28:17.495Z,22
2019-05-02T01:28:57.903Z,21.9
2019-05-02T01:29:47.968Z,22
2019-05-02T01:30:44.170Z,22
2019-05-02T01:31:28.347Z,22
2019-05-02T01:32:18.420Z,22
2019-05-02T01:33:08.509Z,22
2019-05-02T01:33:58.532Z,22
2019-05-02T01:34:56.369Z,22
2019-05-02T01:35:38.405Z,22
2019-05-02T01:36:28.720Z,22
2019-05-02T01:37:22.522Z,22
2019-05-02T01:38:08.852Z,22
2019-05-02T01:39:02.835Z,22
2019-05-02T01:39:48.971Z,22
2019-05-02T01:40:38.782Z,22
2019-05-02T01:41:31.617Z,22
2019-05-02T01:42:18.637Z,22
2019-05-02T01:43:08.950Z,22
2019-05-02T01:44:02.174Z,22
2019-05-02T01:44:48.792Z,22
2019-05-02T01:45:47.757Z,22
2019-05-02T01:46:29.195Z,22
2019-05-02T01:47:19.539Z,21.9
2019-05-02T01:48:11.544Z,22
2019-05-02T01:48:59.669Z,21.9
2019-05-02T01:49:59.236Z,22
2019-05-02T01:50:39.776Z,22
2019-05-02T01:51:29.571Z,22
2019-05-02T01:52:25.551Z,22
2019-05-02T01:53:09.971Z,22
2019-05-02T01:53:59.762Z,22
2019-05-02T01:54:50.081Z,21.9
2019-05-02T01:55:39.878Z,22
2019-05-02T01:56:35.433Z,21.9
2019-05-02T01:57:20.268Z,22
2019-05-02T01:58:10.389Z,22
2019-05-02T01:59:00.391Z,22
2019-05-02T01:59:49.908Z,21.9
2019-05-02T02:00:46.490Z,21.9
2019-05-02T02:01:30.308Z,22
2019-05-02T02:02:20.379Z,22
2019-05-02T02:03:11.198Z,22
2019-05-02T02:04:00.783Z,22
2019-05-02T02:04:58.050Z,22
2019-05-02T02:05:40.888Z,21.9
2019-05-02T02:06:30.681Z,21.9
2019-05-02T02:07:22.231Z,21.9
2019-05-02T02:08:10.527Z,22
2019-05-02T02:09:09.844Z,21.9
2019-05-02T02:09:51.195Z,21.9
2019-05-02T02:10:44.445Z,21.9
2019-05-02T02:11:36.382Z,21.9
2019-05-02T02:12:21.386Z,21.9
2019-05-02T02:13:11.451Z,22
2019-05-02T02:14:01.251Z,21.9
2019-05-02T02:14:56.085Z,21.9
2019-05-02T02:15:41.648Z,21.9
2019-05-02T02:16:40.542Z,22
2019-05-02T02:17:21.485Z,21.9
2019-05-02T02:18:11.285Z,21.9
2019-05-02T02:19:05.687Z,21.9
2019-05-02T02:19:51.670Z,22
2019-05-02T02:20:50.277Z,21.9
2019-05-02T02:21:31.800Z,21.9
2019-05-02T02:22:22.122Z,21.9
2019-05-02T02:23:15.497Z,21.9
2019-05-02T02:24:02.263Z,21.9
2019-05-02T02:25:02.861Z,21.9
2019-05-02T02:25:42.379Z,21.9
2019-05-02T02:26:32.441Z,21.9
2019-05-02T02:27:26.358Z,21.9
2019-05-02T02:28:12.292Z,21.9
2019-05-02T02:29:09.354Z,21.9
2019-05-02T02:29:52.409Z,21.9
2019-05-02T02:30:42.474Z,21.9
2019-05-02T02:31:32.578Z,21.9
2019-05-02T02:32:29.485Z,21.9
2019-05-02T02:33:12.955Z,21.9
2019-05-02T02:34:03.010Z,21.9
2019-05-02T02:34:53.074Z,21.9
2019-05-02T02:35:52.652Z,21.9
2019-05-02T02:36:35.653Z,21.9
2019-05-02T02:37:23.260Z,21.9
2019-05-02T02:38:13.046Z,22
2019-05-02T02:39:17.058Z,21.9
2019-05-02T02:39:57.055Z,21.9
2019-05-02T02:40:43.521Z,21.9
2019-05-02T02:41:33.282Z,21.9
2019-05-02T02:42:34.126Z,21.9
2019-05-02T02:43:35.482Z,21.9
2019-05-02T02:44:53.824Z,21.9
2019-05-02T02:45:43.589Z,21.9
2019-05-02T02:46:40.670Z,21.9
2019-05-02T02:47:23.999Z,21.9
2019-05-02T02:48:13.813Z,21.9
2019-05-02T02:49:04.117Z,21.9
2019-05-02T02:50:05.640Z,21.9
2019-05-02T02:50:45.989Z,21.9
2019-05-02T02:51:34.319Z,21.9
2019-05-02T02:52:24.391Z,21.9
2019-05-02T02:53:25.737Z,21.9
2019-05-02T02:54:06.678Z,21.9
2019-05-02T02:54:54.290Z,21.9
2019-05-02T02:55:44.341Z,21.9
2019-05-02T02:56:42.664Z,21.9
2019-05-02T02:57:28.749Z,21.9
2019-05-02T02:58:14.840Z,21.9
2019-05-02T02:59:04.891Z,21.9
2019-05-02T03:00:11.482Z,21.9
2019-05-02T03:00:49.879Z,21.9
2019-05-02T03:01:35.049Z,21.9
2019-05-02T03:02:25.117Z,21.9
2019-05-02T03:03:20.616Z,21.9
2019-05-02T03:06:47.475Z,21.9
2019-05-02T03:07:31.266Z,21.9
2019-05-02T03:08:21.634Z,21.9
2019-05-02T03:09:11.695Z,21.9
2019-05-02T03:10:08.771Z,21.9
2019-05-02T03:10:51.816Z,21.9
2019-05-02T03:11:41.577Z,21.9
2019-05-02T03:12:46.566Z,21.9
2019-05-02T03:13:24.545Z,21.9
2019-05-02T03:14:12.037Z,21.9
2019-05-02T03:15:02.193Z,21.9
2019-05-02T03:15:51.893Z,21.9
2019-05-02T03:16:49.994Z,21.9
2019-05-02T03:17:32.023Z,21.9
2019-05-02T03:18:21.798Z,21.9
2019-05-02T03:19:23.811Z,21.9
2019-05-02T03:20:04.549Z,21.9
2019-05-02T03:20:52.241Z,21.9
2019-05-02T03:22:43.822Z,21.9
2019-05-02T03:23:25.019Z,21.9
2019-05-02T03:24:12.781Z,21.9
2019-05-02T03:25:02.909Z,21.9
2019-05-02T03:25:52.622Z,21.9
2019-05-02T03:26:48.588Z,21.9
2019-05-02T03:27:41.004Z,21.9
2019-05-02T03:28:23.093Z,21.9
2019-05-02T03:29:13.157Z,21.9
2019-05-02T03:30:53.318Z,21.9
2019-05-02T03:31:43.575Z,21.9
2019-05-02T03:32:37.369Z,21.9
2019-05-02T03:33:22.953Z,21.9
2019-05-02T03:34:13.535Z,21.9
2019-05-02T03:35:03.696Z,21.9
2019-05-02T03:35:53.404Z,21.9
2019-05-02T03:36:43.461Z,21.9
2019-05-02T03:38:35.718Z,21.9
2019-05-02T03:39:18.134Z,21.9
2019-05-02T03:40:03.979Z,21.9
2019-05-02T03:40:53.733Z,21.9
2019-05-02T03:42:48.373Z,21.9
2019-05-02T03:43:28.389Z,21.9
2019-05-02T03:44:27.196Z,21.9
2019-05-02T03:45:06.234Z,21.9
2019-05-02T03:45:54.416Z,21.9
2019-05-02T03:46:44.704Z,21.9
2019-05-02T03:47:46.506Z,21.9
2019-05-02T03:49:14.351Z,21.9
2019-05-02T03:50:08.177Z,21.9
2019-05-02T03:50:54.773Z,21.9
2019-05-02T03:51:44.812Z,21.9
2019-05-02T03:52:46.436Z,21.9
2019-05-02T03:54:15.006Z,21.9
2019-05-02T03:55:54.922Z,21.9
2019-05-02T03:56:53.380Z,21.9
2019-05-02T03:57:41.293Z,21.9
2019-05-02T03:59:15.103Z,21.9
2019-05-02T04:00:05.166Z,21.9
2019-05-02T04:01:04.182Z,21.9
2019-05-02T04:01:45.594Z,21.9
2019-05-02T04:02:35.612Z,21.9
2019-05-02T04:03:25.413Z,21.9
2019-05-02T04:04:23.314Z,21.9
2019-05-02T04:05:20.488Z,21.9
2019-05-02T04:05:55.599Z,21.9
2019-05-02T04:06:45.925Z,21.9
2019-05-02T04:07:43.083Z,21.9
2019-05-02T04:08:25.791Z,21.9
2019-05-02T04:09:15.866Z,21.9
2019-05-02T04:10:06.185Z,21.9
2019-05-02T04:11:02.370Z,21.9
2019-05-02T04:11:46.286Z,21.9
2019-05-02T04:12:36.366Z,21.9
2019-05-02T04:13:38.178Z,21.9
2019-05-02T04:14:39.363Z,21.9
2019-05-02T04:15:10.688Z,21.9
2019-05-02T04:16:57.773Z,21.9
2019-05-02T04:17:38.102Z,21.9
2019-05-02T04:18:27.027Z,21.9
2019-05-02T04:19:16.885Z,22
2019-05-02T04:20:13.013Z,22
2019-05-02T04:22:01.439Z,22.1
2019-05-02T04:23:30.457Z,22.1
2019-05-02T04:24:17.340Z,22.1
2019-05-02T04:25:07.625Z,22.1
2019-05-02T04:25:57.352Z,22
2019-05-02T04:26:57.271Z,22.1
2019-05-02T04:27:37.469Z,22
2019-05-02T04:28:27.552Z,22
2019-05-02T04:29:17.357Z,22
2019-05-02T04:30:22.314Z,22
2019-05-02T04:30:57.451Z,22
2019-05-02T04:31:47.809Z,22
2019-05-02T04:32:37.846Z,22
2019-05-02T04:34:29.737Z,22
2019-05-02T04:35:19.267Z,22
2019-05-02T04:36:18.648Z,22
2019-05-02T04:37:04.392Z,22
2019-05-02T04:37:49.722Z,22
2019-05-02T04:38:53.039Z,21.9
2019-05-02T04:39:29.862Z,22
2019-05-02T04:40:20.189Z,21.9
2019-05-02T04:42:22.850Z,22
2019-05-02T04:43:11.048Z,22
2019-05-02T04:45:21.618Z,22
2019-05-02T04:47:25.046Z,22
2019-05-02T04:48:18.090Z,22
2019-05-02T04:49:55.215Z,22
2019-05-02T04:50:48.215Z,22
2019-05-02T04:52:48.094Z,22
2019-05-02T04:55:29.811Z,22
2019-05-02T04:55:49.446Z,22
2019-05-02T04:56:55.625Z,22
2019-05-02T04:57:26.981Z,22
2019-05-02T04:58:37.816Z,22.1
2019-05-02T04:59:22.843Z,22.1
2019-05-02T05:00:12.155Z,22.1
2019-05-02T05:01:02.118Z,22.1
2019-05-02T05:02:00.570Z,22.1
2019-05-02T05:02:40.424Z,22.1
2019-05-02T05:03:21.801Z,22.1
2019-05-02T05:04:08.850Z,22.1
2019-05-02T05:04:59.152Z,22.1
2019-05-02T05:05:49.090Z,22.1
2019-05-02T05:07:00.874Z,22.1
2019-05-02T05:07:47.076Z,22.1
2019-05-02T05:09:17.876Z,22.1
2019-05-02T05:10:03.997Z,22.1
2019-05-02T05:10:48.895Z,22.1
2019-05-02T05:11:38.836Z,22.1
2019-05-02T05:12:37.887Z,22.1
2019-05-02T05:14:10.594Z,22.1
2019-05-02T05:15:01.052Z,22.1
2019-05-02T05:15:52.644Z,22.1
2019-05-02T05:16:45.323Z,22.1
2019-05-02T05:17:34.756Z,22.1
2019-05-02T05:18:18.699Z,22.1
2019-05-02T05:19:08.672Z,22.1
2019-05-02T05:20:15.453Z,22.1
2019-05-02T05:20:54.813Z,22.1
2019-05-02T05:21:38.149Z,22.1
2019-05-02T05:22:29.381Z,22.1
2019-05-02T05:23:22.430Z,22.1
2019-05-02T05:24:08.496Z,22.1
2019-05-02T05:24:59.261Z,22.1
2019-05-02T05:26:02.881Z,22.1
2019-05-02T05:26:43.576Z,22.1
2019-05-02T05:27:28.519Z,22.1
2019-05-02T05:28:20.932Z,22.1
2019-05-02T05:29:09.320Z,22.1
2019-05-02T05:30:15.578Z,22.1
2019-05-02T05:30:53.052Z,22.1
2019-05-02T05:31:39.267Z,22.1
2019-05-02T05:33:19.577Z,22.1
2019-05-02T05:34:10.867Z,22.1
2019-05-02T05:35:08.825Z,22.1
2019-05-02T05:35:53.369Z,22.1
2019-05-02T05:36:38.926Z,22.1
2019-05-02T05:37:30.519Z,22.1
2019-05-02T05:38:28.419Z,22.1
2019-05-02T05:39:59.168Z,22.1
2019-05-02T05:41:52.381Z,22.2
2019-05-02T05:42:34.258Z,22.2
2019-05-02T05:43:21.314Z,22.2
2019-05-02T05:44:09.468Z,22.2
2019-05-02T05:45:14.144Z,22.2
2019-05-02T05:47:43.557Z,22.2
2019-05-02T05:48:41.320Z,22.2
2019-05-02T05:49:22.959Z,22.2
2019-05-02T05:50:13.517Z,22.3
2019-05-02T05:51:03.355Z,22.2
2019-05-02T05:52:04.235Z,22.3
2019-05-02T05:52:43.657Z,22.3
2019-05-02T05:53:33.556Z,22.3
2019-05-02T05:55:24.910Z,22.3
2019-05-02T05:56:03.477Z,22.3
2019-05-02T05:56:54.026Z,22.3
2019-05-02T05:57:43.876Z,22.3
2019-05-02T05:58:33.920Z,22.3
2019-05-02T05:59:32.694Z,22.3
2019-05-02T06:00:23.774Z,22.3
2019-05-02T06:01:10.311Z,22.3
2019-05-02T06:01:54.182Z,22.3
2019-05-02T06:04:41.374Z,22.3
2019-05-02T06:05:42.279Z,22.3
2019-05-02T06:06:25.121Z,22.3
2019-05-02T06:07:11.279Z,22.3
2019-05-02T06:08:01.359Z,22.3
2019-05-02T06:08:55.980Z,22.3
2019-05-02T06:09:41.455Z,22.3
2019-05-02T06:10:31.779Z,22.3
2019-05-02T06:11:22.829Z,22.4
2019-05-02T06:12:11.902Z,22.4
2019-05-02T06:13:12.891Z,22.4
2019-05-02T06:13:52.041Z,22.4
2019-05-02T06:14:42.097Z,22.4
2019-05-02T06:15:40.458Z,22.4
2019-05-02T06:16:22.221Z,22.4
2019-05-02T06:17:12.279Z,22.4
2019-05-02T06:18:06.767Z,22.4
2019-05-02T06:18:52.400Z,22.4
2019-05-02T06:19:42.469Z,22.4
2019-05-02T06:20:32.988Z,22.4
2019-05-02T06:21:22.585Z,22.4
2019-05-02T06:22:25.645Z,22.4
2019-05-02T06:23:02.702Z,22.4
2019-05-02T06:23:52.496Z,22.4
2019-05-02T06:24:52.156Z,22.4
2019-05-02T06:25:37.502Z,22.4
2019-05-02T06:26:22.957Z,22.4
2019-05-02T06:27:13.011Z,22.4
2019-05-02T06:28:07.411Z,22.4
2019-05-02T06:28:53.130Z,22.4
2019-05-02T06:29:43.205Z,22.4
2019-05-02T06:30:33.421Z,22.4
2019-05-02T06:31:23.321Z,22.4
2019-05-02T06:32:20.681Z,22.4
2019-05-02T06:33:03.180Z,22.4
2019-05-02T06:33:53.228Z,22.4
2019-05-02T06:34:48.150Z,22.4
2019-05-02T06:35:33.347Z,22.4
2019-05-02T06:36:23.691Z,22.4
2019-05-02T06:37:16.005Z,22.4
2019-05-02T06:38:03.824Z,22.4
2019-05-02T06:38:58.445Z,22.4
2019-05-02T06:39:43.670Z,22.4
2019-05-02T06:40:34.010Z,22.4
2019-05-02T06:41:24.058Z,22.4
2019-05-02T06:42:13.842Z,22.5
2019-05-02T06:43:11.396Z,22.5
2019-05-02T06:43:54.244Z,22.5
2019-05-02T06:44:44.310Z,22.5
2019-05-02T06:45:40.228Z,22.5
2019-05-02T06:46:30.264Z,22.5
2019-05-02T06:47:13.945Z,22.5
2019-05-02T06:48:04.273Z,22.5
2019-05-02T06:48:54.743Z,22.5
2019-05-02T06:49:44.674Z,22.5
2019-05-02T06:50:40.925Z,22.5
2019-05-02T06:51:24.810Z,22.5
2019-05-02T06:52:14.877Z,22.5
2019-05-02T06:53:11.355Z,22.5
2019-05-02T06:53:54.989Z,22.5
2019-05-02T06:54:45.044Z,22.5
2019-05-02T06:55:39.024Z,22.5
2019-05-02T06:56:25.161Z,22.5
2019-05-02T06:57:18.983Z,22.5
2019-05-02T06:58:08.884Z,22.5
2019-05-02T06:58:55.347Z,22.6
2019-05-02T06:59:45.414Z,22.5
2019-05-02T07:00:59.091Z,22.6
2019-05-02T07:02:15.326Z,22.6
2019-05-02T07:04:41.074Z,22.6
2019-05-02T07:05:31.108Z,22.6
2019-05-02T07:06:21.764Z,22.6
2019-05-02T07:08:06.096Z,22.6
2019-05-02T07:08:51.906Z,22.6
2019-05-02T07:09:43.278Z,22.6
2019-05-02T07:10:45.716Z,22.6
2019-05-02T07:11:21.812Z,22.6
2019-05-02T07:12:17.186Z,22.6
2019-05-02T07:13:15.325Z,22.6
2019-05-02T07:13:51.998Z,22.6
2019-05-02T07:14:42.058Z,22.6
2019-05-02T07:15:40.833Z,22.6
2019-05-02T07:16:39.254Z,22.6
2019-05-02T07:17:11.963Z,22.6
2019-05-02T07:18:12.689Z,22.6
2019-05-02T07:18:52.365Z,22.6
2019-05-02T07:19:42.418Z,22.6
2019-05-02T07:20:42.500Z,22.6
2019-05-02T07:21:24.244Z,22.6
2019-05-02T07:22:12.604Z,22.6
2019-05-02T07:23:02.668Z,22.6
2019-05-02T07:23:55.736Z,22.6
2019-05-02T07:24:42.799Z,22.6
2019-05-02T07:25:32.579Z,22.6
2019-05-02T07:26:24.364Z,22.6
2019-05-02T07:27:12.989Z,22.6
2019-05-02T07:28:10.786Z,22.6
2019-05-02T07:29:43.169Z,22.6
2019-05-02T07:30:36.813Z,22.6
2019-05-02T07:31:23.291Z,22.6
2019-05-02T07:32:13.078Z,22.6
2019-05-02T07:33:03.466Z,22.6
2019-05-02T07:33:53.474Z,22.6
2019-05-02T07:34:49.447Z,22.6
2019-05-02T07:35:33.323Z,22.6
2019-05-02T07:36:23.408Z,22.6
2019-05-02T07:37:14.482Z,22.6
2019-05-02T07:38:03.787Z,22.6
2019-05-02T07:39:06.602Z,22.6
2019-05-02T07:39:43.923Z,22.6
2019-05-02T07:40:33.702Z,22.6
2019-05-02T07:41:30.295Z,22.6
2019-05-02T07:42:14.110Z,22.6
2019-05-02T07:43:04.158Z,22.6
2019-05-02T07:43:58.088Z,22.6
2019-05-02T07:44:44.018Z,22.6
2019-05-02T07:45:34.080Z,22.6
2019-05-02T07:46:24.132Z,22.6
2019-05-02T07:48:04.520Z,22.6
2019-05-02T07:48:57.185Z,22.6
2019-05-02T07:49:44.649Z,22.6
2019-05-02T07:50:34.710Z,22.6
2019-05-02T07:51:24.495Z,22.6
2019-05-02T07:52:14.846Z,22.6
2019-05-02T07:53:14.262Z,22.6
2019-05-02T07:53:56.858Z,22.7
2019-05-02T07:54:45.074Z,22.6
2019-05-02T07:55:43.247Z,22.7
2019-05-02T07:56:24.857Z,22.7
2019-05-02T07:57:15.199Z,22.6
2019-05-02T07:58:08.799Z,22.7
2019-05-02T07:58:55.322Z,22.7
2019-05-02T07:59:45.107Z,22.6
2019-05-02T08:00:38.726Z,22.7
2019-05-02T08:01:25.554Z,22.7
2019-05-02T08:02:30.229Z,22.6
2019-05-02T08:03:05.884Z,22.7
2019-05-02T08:03:55.194Z,22.7
2019-05-02T08:04:45.914Z,22.7
2019-05-02T08:05:35.546Z,22.7
2019-05-02T08:06:44.541Z,22.7
2019-05-02T08:08:05.724Z,22.7
2019-05-02T08:08:56.076Z,22.7
2019-05-02T08:09:46.326Z,22.7
2019-05-02T08:10:36.188Z,22.7
2019-05-02T08:11:25.978Z,22.7
2019-05-02T08:12:16.314Z,22.7
2019-05-02T08:13:06.108Z,22.6
2019-05-02T08:14:01.252Z,22.7
2019-05-02T08:14:46.228Z,22.7
2019-05-02T08:15:36.561Z,22.7
2019-05-02T08:16:28.958Z,22.7
2019-05-02T08:17:19.861Z,22.7
2019-05-02T08:18:06.223Z,22.7
2019-05-02T08:19:01.264Z,22.7
2019-05-02T08:19:46.881Z,22.7
2019-05-02T08:20:36.932Z,22.7
2019-05-02T08:21:33.972Z,22.7
2019-05-02T08:22:16.780Z,22.7
2019-05-02T08:23:06.838Z,22.7
2019-05-02T08:24:03.671Z,22.7
2019-05-02T08:24:47.243Z,22.8
2019-05-02T08:25:46.559Z,22.6
2019-05-02T08:26:27.374Z,22.6
2019-05-02T08:27:17.147Z,22.8
2019-05-02T08:28:18.413Z,22.8
2019-05-02T08:28:57.552Z,22.7
2019-05-02T08:29:47.615Z,22.7
2019-05-02T08:30:42.420Z,22.7
2019-05-02T08:31:30.675Z,22.7
2019-05-02T08:32:17.800Z,22.7
2019-05-02T08:33:07.855Z,22.7
2019-05-02T08:33:57.912Z,22.7
2019-05-02T08:34:54.057Z,22.7
2019-05-02T08:35:37.762Z,22.7
2019-05-02T08:36:27.825Z,22.7
2019-05-02T08:37:17.884Z,22.7
2019-05-02T08:38:17.727Z,22.7
2019-05-02T08:38:58.285Z,22.7
2019-05-02T08:39:48.357Z,22.7
2019-05-02T08:40:47.682Z,22.7
2019-05-02T08:41:28.195Z,22.7
2019-05-02T08:42:18.257Z,22.7
2019-05-02T08:43:11.227Z,22.7
2019-05-02T08:43:58.379Z,22.7
2019-05-02T08:45:00.844Z,22.7
2019-05-02T08:45:40.148Z,22.7
2019-05-02T08:46:28.834Z,22.7
2019-05-02T08:47:28.441Z,22.7
2019-05-02T08:48:08.966Z,22.7
2019-05-02T08:48:58.779Z,22.7
2019-05-02T08:49:56.654Z,22.7
2019-05-02T08:50:39.149Z,22.7
2019-05-02T08:51:28.939Z,22.7
2019-05-02T08:52:18.994Z,22.7
2019-05-02T08:53:09.064Z,22.7
2019-05-02T08:53:59.701Z,22.7
2019-05-02T08:54:49.459Z,22.7
2019-05-02T08:55:47.226Z,22.7
2019-05-02T08:56:29.577Z,22.7
2019-05-02T08:57:19.640Z,22.7
2019-05-02T08:58:16.521Z,22.7
2019-05-02T08:58:59.761Z,22.7
2019-05-02T08:59:49.566Z,22.7
2019-05-02T09:00:40.673Z,22.7
2019-05-02T09:01:36.308Z,22.7
2019-05-02T09:02:40.229Z,22.7
2019-05-02T09:04:00.123Z,22.7
2019-05-02T09:05:06.039Z,22.7
2019-05-02T09:05:48.136Z,22.7
2019-05-02T09:06:30.323Z,22.7
2019-05-02T09:07:20.744Z,22.7
2019-05-02T09:08:17.205Z,22.7
2019-05-02T09:09:00.515Z,22.7
2019-05-02T09:10:44.028Z,22.7
2019-05-02T09:11:30.694Z,22.7
2019-05-02T09:12:23.423Z,22.7
2019-05-02T09:13:15.743Z,22.7
2019-05-02T09:14:03.108Z,22.7
2019-05-02T09:14:53.059Z,22.7
2019-05-02T09:15:54.424Z,22.7
2019-05-02T09:16:33.625Z,22.7
2019-05-02T09:17:43.790Z,22.7
2019-05-02T09:19:03.330Z,22.7
2019-05-02T09:20:15.811Z,22.7
2019-05-02T09:21:36.602Z,22.7
2019-05-02T09:22:22.909Z,22.7
2019-05-02T09:23:13.133Z,22.7
2019-05-02T09:24:03.572Z,22.7
2019-05-02T09:25:43.922Z,22.7
2019-05-02T09:26:39.392Z,22.7
2019-05-02T09:27:23.502Z,22.7
2019-05-02T09:28:22.316Z,22.7
2019-05-02T09:29:06.190Z,22.7
2019-05-02T09:29:52.927Z,22.7
2019-05-02T09:30:43.000Z,22.7
2019-05-02T09:31:41.988Z,22.7
2019-05-02T09:32:27.112Z,22.7
2019-05-02T09:33:12.837Z,22.7
2019-05-02T09:34:03.773Z,22.7
2019-05-02T09:35:01.925Z,22.7
2019-05-02T09:35:42.969Z,22.7
2019-05-02T09:36:33.330Z,22.7
2019-05-02T09:37:23.802Z,22.7
2019-05-02T09:38:16.644Z,22.7
2019-05-02T09:39:03.688Z,22.7
2019-05-02T09:39:53.541Z,22.7
2019-05-02T09:40:52.443Z,22.7
2019-05-02T09:42:22.725Z,22.7
2019-05-02T09:43:13.072Z,22.7
2019-05-02T09:44:03.899Z,22.7
2019-05-02T09:44:57.561Z,22.7
2019-05-02T09:45:44.985Z,22.7
2019-05-02T09:46:33.338Z,22.6
2019-05-02T09:47:46.929Z,22.7
2019-05-02T09:49:17.610Z,22.7
2019-05-02T09:50:06.803Z,22.7
2019-05-02T09:51:11.440Z,22.7
2019-05-02T09:52:03.126Z,22.7
2019-05-02T09:52:44.773Z,22.7
2019-05-02T09:53:27.038Z,22.7
2019-05-02T09:54:16.553Z,22.7
2019-05-02T09:55:06.903Z,22.7
2019-05-02T09:55:59.048Z,22.7
2019-05-02T09:56:47.015Z,22.7
2019-05-02T09:57:37.349Z,22.7
2019-05-02T09:58:27.440Z,22.7
2019-05-02T09:59:32.772Z,22.7
2019-05-02T10:00:07.265Z,22.7
2019-05-02T10:00:57.340Z,22.7
2019-05-02T10:01:47.649Z,22.7
2019-05-02T10:02:37.735Z,22.7
2019-05-02T10:03:27.529Z,22.7
2019-05-02T10:05:43.535Z,22.7
2019-05-02T10:06:34.750Z,22.7
2019-05-02T10:07:23.097Z,22.7
2019-05-02T10:08:14.711Z,22.6
2019-05-02T10:09:03.781Z,22.6
2019-05-02T10:09:52.942Z,22.7
2019-05-02T10:10:46.671Z,22.7
2019-05-02T10:11:33.032Z,22.6
2019-05-02T10:12:23.833Z,22.7
2019-05-02T10:13:12.972Z,22.7
2019-05-02T10:14:03.243Z,22.7
2019-05-02T10:14:53.738Z,22.7
2019-05-02T10:15:42.871Z,22.7
2019-05-02T10:16:32.761Z,22.7
2019-05-02T10:17:24.106Z,22.6
2019-05-02T10:18:24.542Z,22.6
2019-05-02T10:19:13.949Z,22.6
2019-05-02T10:19:57.869Z,22.7
2019-05-02T10:20:43.031Z,22.7
2019-05-02T10:21:32.901Z,22.6
2019-05-02T10:22:39.031Z,22.7
2019-05-02T10:23:23.487Z,22.7
2019-05-02T10:24:04.714Z,22.7
2019-05-02T10:24:53.015Z,22.6
2019-05-02T10:25:47.673Z,22.6
2019-05-02T10:26:33.839Z,22.6
2019-05-02T10:27:22.798Z,22.6
2019-05-02T10:28:13.721Z,22.6
2019-05-02T10:29:03.164Z,22.6
2019-05-02T10:29:53.680Z,22.6
2019-05-02T10:31:38.400Z,22.6
2019-05-02T10:32:23.693Z,22.6
2019-05-02T10:33:13.329Z,22.6
2019-05-02T10:34:03.155Z,22.6
2019-05-02T10:34:57.523Z,22.6
2019-05-02T10:35:44.521Z,22.6
2019-05-02T10:36:33.359Z,22.7
2019-05-02T10:37:23.355Z,22.6
2019-05-02T10:38:20.093Z,22.6
2019-05-02T10:39:03.475Z,22.6
2019-05-02T10:39:56.872Z,22.6
2019-05-02T10:40:43.807Z,22.6
2019-05-02T10:41:43.838Z,22.6
2019-05-02T10:42:23.657Z,22.6
2019-05-02T10:43:13.969Z,22.6
2019-05-02T10:44:03.766Z,22.6
2019-05-02T10:44:54.094Z,22.6
2019-05-02T10:45:56.540Z,22.6
2019-05-02T10:46:38.557Z,22.6
2019-05-02T10:47:24.002Z,22.6
2019-05-02T10:48:29.534Z,22.6
2019-05-02T10:49:04.404Z,22.6
2019-05-02T10:49:54.468Z,22.6
2019-05-02T10:50:44.265Z,22.6
2019-05-02T10:51:34.351Z,22.6
2019-05-02T10:52:34.634Z,22.6
2019-05-02T10:53:16.710Z,22.6
2019-05-02T10:54:04.775Z,22.6
2019-05-02T10:54:54.827Z,22.6
2019-05-02T10:55:44.347Z,22.6
2019-05-02T10:56:34.959Z,22.6
2019-05-02T10:57:24.745Z,22.6
2019-05-02T10:58:15.079Z,22.6
2019-05-02T10:59:05.169Z,22.6
2019-05-02T10:59:57.164Z,22.6
2019-05-02T11:00:46.454Z,22.6
2019-05-02T11:01:35.326Z,22.6
2019-05-02T11:02:25.391Z,22.6
2019-05-02T11:03:15.446Z,22.6
2019-05-02T11:04:05.522Z,22.6
2019-05-02T11:04:55.578Z,22.6
2019-05-02T11:05:45.379Z,22.6
2019-05-02T11:06:46.240Z,22.6
2019-05-02T11:07:27.461Z,22.6
2019-05-02T11:08:15.814Z,22.6
2019-05-02T11:09:07.491Z,22.6
2019-05-02T11:10:06.855Z,22.6
2019-05-02T11:10:45.733Z,22.6
2019-05-02T11:11:36.067Z,22.6
2019-05-02T11:12:46.779Z,22.6
2019-05-02T11:14:06.833Z,22.6
2019-05-02T11:14:56.051Z,22.6
2019-05-02T11:15:46.376Z,22.6
2019-05-02T11:16:36.450Z,22.6
2019-05-02T11:17:26.521Z,22.6
2019-05-02T11:18:16.568Z,22.6
2019-05-02T11:19:06.381Z,22.6
2019-05-02T11:19:56.415Z,22.6
2019-05-02T11:20:46.473Z,22.6
2019-05-02T11:21:36.800Z,22.6
2019-05-02T11:23:16.933Z,22.6
2019-05-02T11:24:06.712Z,22.6
2019-05-02T11:24:57.056Z,22.6
2019-05-02T11:25:46.840Z,22.6
2019-05-02T11:26:36.918Z,22.6
2019-05-02T11:27:27.259Z,22.6
2019-05-02T11:28:17.050Z,22.6
2019-05-02T11:29:07.205Z,22.6
2019-05-02T11:29:57.434Z,22.6
2019-05-02T11:30:47.210Z,22.6
2019-05-02T11:31:37.275Z,22.6
2019-05-02T11:32:27.617Z,22.5
2019-05-02T11:33:17.395Z,22.6
2019-05-02T11:34:07.468Z,22.5
2019-05-02T11:34:57.789Z,22.5
2019-05-02T11:35:53.678Z,22.5
2019-05-02T11:36:37.927Z,22.5
2019-05-02T11:37:27.981Z,22.6
2019-05-02T11:38:56.762Z,22.5
2019-05-02T11:41:04.074Z,22.6
2019-05-02T11:41:53.849Z,22.5
2019-05-02T11:42:44.189Z,22.5
2019-05-02T11:43:45.035Z,22.5
2019-05-02T11:44:24.021Z,22.5
2019-05-02T11:45:14.376Z,22.5
2019-05-02T11:46:08.326Z,22.5
2019-05-02T11:46:54.481Z,22.5
2019-05-02T11:47:44.553Z,22.5
2019-05-02T11:48:34.621Z,22.5
2019-05-02T11:49:24.411Z,22.5
2019-05-02T11:50:14.468Z,22.5
2019-05-02T11:51:16.467Z,22.5
2019-05-02T11:51:57.923Z,22.5
2019-05-02T11:52:44.641Z,22.5
2019-05-02T11:53:34.995Z,22.5
2019-05-02T11:54:28.188Z,22.5
2019-05-02T11:55:18.901Z,22.5
2019-05-02T11:56:13.456Z,22.5
2019-05-02T11:56:55.232Z,22.5
2019-05-02T11:57:45.040Z,22.5
2019-05-02T11:58:35.363Z,22.5
2019-05-02T11:59:32.423Z,22.5
2019-05-02T12:00:15.483Z,22.5
2019-05-02T12:01:06.493Z,22.5